Scilly, United Kingdom
Current Conditions -  °F | °C
As of 10:50 AM on Monday 22 Dec 2014 (Local Time) from EGDR Reporting Station
Haze Haze  
Wind Chill: 54°   Ceiling: 1200
Heat Index: 54°   Visibility: 6mi
Dew Point: 50°   Wind: 18mph
Humidity: 88%   Direction: 240°WSW
Pressure: 30.24"   Gusts: 31mph
Location:  49.93°N, 6.31°W
Report Text: EGDR 221050Z 24016G27KT 9999 HZ FEW008 BKN012 BKN020 12/10 Q1024 GRN TEMPO 4000 -DZ BKN005 YLO1
Loading
Personal Weather Stations






























Interactive Weather Map New forecast layout! Learn more

10-Day Weather Forecast

Advertisements
Track Severe Weather on mobile